Terminal Aerodrome Forecast
Issued by NWS

Home | Current Version | Previous Version | Text Only | Print | Product List | Glossary On
Versions: 1 2 3 4 5 6 7 8 9 10 11 12 13 14 15 16 17
683
FTUS45 KMSO 280520
TAFSMN
TAF
KSMN 280520Z 2806/2906 VRB06KT P6SM -SHRA SCT060 BKN100
     FM281700 33007KT P6SM VCSH BKN080
     FM282200 35013G20KT P6SM VCSH SCT050 OVC080
      AMD LTD TO CLD VIS AND WIND=

USA.gov is the U.S. government's official web portal to all federal, state and local government web resources and services.